Time;durP1;ratioP1;P1;durP2;ratioP2;P2;SDS_P1;SDS_P2;PMS_P1;PMS_P2;Temp;Humidity;BMP_temperature;BMP_pressure;BME280_temperature;BME280_humidity;BME280_pressure;Samples;Min_cycle;Max_cycle;Signal;HPM_P1;HPM_P2
2021/12/11 00:01:48;;;;;;;0.57;0.57;;;;;;;1.76;85.68;95828.78;5113559;28;20023;-64
2021/12/11 00:04:19;;;;;;;1.00;0.90;;;;;;;1.78;84.78;95821.91;5113501;28;20035;-64
2021/12/11 00:06:48;;;;;;;0.80;0.80;;;;;;;1.82;84.18;95827.84;5113670;28;20503;-63
2021/12/11 00:09:20;;;;;;;0.70;0.70;;;;;;;1.86;83.85;95830.38;5113626;28;20020;-65
2021/12/11 00:11:51;;;;;;;3.25;0.80;;;;;;;1.73;83.97;95829.69;5112279;28;20019;-63
2021/12/11 00:14:19;;;;;;;0.70;0.70;;;;;;;1.77;82.23;95831.34;5113485;28;20061;-62
2021/12/11 00:16:45;;;;;;;0.63;0.60;;;;;;;1.67;81.62;95827.19;5113495;28;20024;-63
2021/12/11 00:19:20;;;;;;;1.70;1.00;;;;;;;1.57;82.13;95841.09;5113372;28;20023;-62
2021/12/11 00:21:47;;;;;;;2.88;0.70;;;;;;;1.60;82.77;95856.53;5113365;28;20106;-63
2021/12/11 00:24:17;;;;;;;4.10;0.95;;;;;;;1.50;83.22;95851.50;5113235;28;20415;-66
2021/12/11 00:26:50;;;;;;;0.57;0.57;;;;;;;1.51;83.06;95854.94;5113481;28;20050;-63
2021/12/11 00:29:21;;;;;;;2.28;0.70;;;;;;;1.51;82.65;95860.91;5113516;28;20058;-65
2021/12/11 00:31:51;;;;;;;0.85;0.82;;;;;;;1.53;82.67;95868.63;5113463;28;20477;-66
2021/12/11 00:34:19;;;;;;;0.60;0.60;;;;;;;1.47;82.83;95863.56;5113517;28;20028;-64
2021/12/11 00:37:07;;;;;;;1.63;1.00;;;;;;;1.49;83.33;95862.69;5113286;28;20445;-64
2021/12/11 00:39:38;;;;;;;0.90;0.90;;;;;;;1.51;83.82;95871.22;5112797;28;20073;-63
2021/12/11 00:42:09;;;;;;;2.60;0.85;;;;;;;1.54;84.07;95872.06;5117248;28;20092;-61
2021/12/11 00:44:43;;;;;;;;;;;;;;;1.54;83.64;95887.53;5117572;28;20023;-61
2021/12/11 00:47:13;;;;;;;0.50;0.50;;;;;;;1.50;84.31;95903.06;5117153;28;19915;-63
2021/12/11 00:50:07;;;;;;;1.00;0.80;;;;;;;1.48;83.99;95907.34;5117115;28;20110;-63
2021/12/11 00:52:32;;;;;;;1.90;0.80;;;;;;;1.49;83.36;95927.13;5114243;28;20035;-62
2021/12/11 00:55:02;;;;;;;0.80;0.80;;;;;;;1.50;82.70;95927.97;5117156;28;20020;-63
2021/12/11 00:57:28;;;;;;;1.45;1.00;;;;;;;1.50;82.36;95921.09;5116937;28;20046;-62
2021/12/11 01:00:05;;;;;;;1.63;1.52;;;;;;;1.46;82.17;95908.25;5117114;28;20058;-60
2021/12/11 01:02:32;;;;;;;1.20;1.10;;;;;;;1.39;81.81;95902.34;5116976;28;20072;-64
2021/12/11 01:04:59;;;;;;;0.82;0.82;;;;;;;1.37;81.15;95904.94;5116875;28;20024;-63
2021/12/11 01:07:30;;;;;;;1.52;0.90;;;;;;;1.37;80.99;95914.38;5116946;28;20434;-60
2021/12/11 01:10:04;;;;;;;0.80;0.80;;;;;;;1.26;82.13;95910.19;5116727;28;20099;-60
2021/12/11 01:12:44;;;;;;;1.00;0.90;;;;;;;1.20;82.42;95902.53;5116783;28;20030;-66
2021/12/11 01:15:21;;;;;;;0.80;0.80;;;;;;;1.20;82.67;95893.97;5116776;28;20035;-64
2021/12/11 01:18:21;;;;;;;0.75;0.70;;;;;;;1.23;82.24;95888.75;5116697;28;20489;-64
2021/12/11 01:21:02;;;;;;;0.85;0.70;;;;;;;1.27;83.89;95898.19;5116289;28;20040;-64
2021/12/11 01:26:07;;;;;;;1.48;0.60;;;;;;;1.29;83.63;95888.69;5116493;28;20030;-63
2021/12/11 01:28:35;;;;;;;0.70;0.68;;;;;;;1.28;83.62;95892.16;5116446;28;20032;-65
2021/12/11 01:31:02;;;;;;;3.33;0.90;;;;;;;1.26;83.38;95896.44;5116388;28;20016;-65
2021/12/11 01:33:29;;;;;;;6.97;0.95;;;;;;;1.21;83.36;95893.09;5116236;28;20019;-65
2021/12/11 01:35:55;;;;;;;0.70;0.57;;;;;;;1.24;82.21;95885.31;5116316;28;20027;-64
2021/12/11 01:38:28;;;;;;;4.80;0.80;;;;;;;1.20;82.25;95884.50;5116255;28;20016;-63
2021/12/11 01:41:05;;;;;;;0.80;0.80;;;;;;;1.14;84.75;95879.41;5116362;27;20418;-65
2021/12/11 01:43:33;;;;;;;1.23;0.80;;;;;;;1.22;86.37;95871.59;5116077;28;20469;-63
2021/12/11 01:46:01;;;;;;;0.90;0.85;;;;;;;1.28;85.32;95878.38;5116104;28;20024;-61
2021/12/11 01:48:33;;;;;;;0.50;0.50;;;;;;;1.28;84.93;95880.97;5116011;27;20068;-62
2021/12/11 01:51:05;;;;;;;4.15;0.93;;;;;;;1.31;84.44;95871.50;5116024;28;20031;-65
2021/12/11 01:53:36;;;;;;;0.82;0.70;;;;;;;1.38;84.44;95880.84;5115923;28;20076;-60
2021/12/11 01:56:07;;;;;;;0.50;0.50;;;;;;;1.43;84.42;95872.19;5115852;27;20494;-68
2021/12/11 01:58:43;;;;;;;0.68;0.68;;;;;;;1.43;83.81;95872.19;5115986;28;20362;-65
2021/12/11 02:01:24;;;;;;;2.70;0.57;;;;;;;1.44;82.89;95869.59;5115751;28;20031;-65
2021/12/11 02:03:52;;;;;;;0.65;0.65;;;;;;;1.44;83.15;95876.50;5115769;28;20035;-64
2021/12/11 02:06:18;;;;;;;2.70;1.98;;;;;;;1.48;83.21;95870.44;5115643;28;20469;-65
2021/12/11 02:08:44;;;;;;;1.38;0.70;;;;;;;1.48;82.47;95866.13;5115630;28;20042;-65
2021/12/11 02:11:21;;;;;;;2.13;0.68;;;;;;;1.48;82.57;95860.13;5115458;27;20015;-65
2021/12/11 02:14:08;;;;;;;0.60;0.60;;;;;;;1.49;82.02;95866.97;5115625;28;20036;-65
2021/12/11 02:16:45;;;;;;;0.63;0.63;;;;;;;1.46;82.01;95873.03;5115551;28;20458;-62
2021/12/11 02:19:15;;;;;;;0.80;0.80;;;;;;;1.42;82.15;95873.09;5115141;28;20027;-63
2021/12/11 02:22:05;;;;;;;1.48;1.05;;;;;;;1.45;82.52;95857.59;5115497;27;20466;-62
2021/12/11 02:24:38;;;;;;;5.47;1.67;;;;;;;1.47;82.15;95866.13;5115346;28;20469;-64
2021/12/11 02:27:12;;;;;;;5.50;2.67;;;;;;;1.45;82.51;95873.91;5115294;28;20492;-61
2021/12/11 02:29:42;;;;;;;5.55;2.70;;;;;;;1.46;82.50;95873.03;5115250;28;20031;-63
2021/12/11 02:32:17;;;;;;;3.30;1.80;;;;;;;1.41;82.30;95874.78;5115134;28;20031;-64
2021/12/11 02:34:49;;;;;;;1.00;0.90;;;;;;;1.40;82.43;95867.94;5115096;28;20031;-65
2021/12/11 02:37:22;;;;;;;0.98;0.70;;;;;;;1.37;82.14;95868.84;5115195;28;20019;-63
2021/12/11 02:39:56;;;;;;;2.05;0.98;;;;;;;1.35;82.24;95869.72;5115107;28;20377;-67
2021/12/11 02:42:32;;;;;;;5.22;1.10;;;;;;;1.37;82.79;95867.97;5115177;28;20032;-64
2021/12/11 02:45:03;;;;;;;3.30;1.00;;;;;;;1.39;82.63;95871.41;5115035;28;20020;-64
2021/12/11 02:47:36;;;;;;;0.73;0.73;;;;;;;1.39;82.42;95881.72;5114852;28;20061;-65
2021/12/11 02:50:07;;;;;;;1.15;0.88;;;;;;;1.37;82.57;95880.88;5114791;28;20024;-64
2021/12/11 02:52:45;;;;;;;1.50;1.13;;;;;;;1.36;81.63;95874.84;5114875;28;20028;-62
2021/12/11 02:55:33;;;;;;;0.82;0.82;;;;;;;1.34;81.26;95874.03;5114793;28;20073;-63
2021/12/11 02:58:15;;;;;;;1.77;1.13;;;;;;;1.35;81.29;95880.03;5114867;28;20038;-66
2021/12/11 03:00:57;;;;;;;0.77;0.77;;;;;;;1.25;81.11;95882.72;5114612;28;20038;-64
2021/12/11 03:03:31;;;;;;;0.82;0.82;;;;;;;1.25;81.70;95882.72;5114095;28;20036;-66
2021/12/11 03:06:05;;;;;;;2.42;0.88;;;;;;;1.23;82.12;95881.88;5114584;28;20028;-63
2021/12/11 03:08:31;;;;;;;0.93;0.90;;;;;;;1.22;81.93;95877.59;5114724;28;20042;-65
2021/12/11 03:11:00;;;;;;;3.15;1.27;;;;;;;1.24;81.79;95868.13;5114355;28;20049;-66
2021/12/11 03:13:29;;;;;;;0.93;0.93;;;;;;;1.24;81.74;95869.88;5114344;28;20071;-65
2021/12/11 03:15:55;;;;;;;1.15;0.90;;;;;;;1.20;81.63;95871.59;5114369;28;20051;-65
2021/12/11 03:18:22;;;;;;;1.10;0.98;;;;;;;1.23;81.83;95869.00;5114200;28;20474;-63
2021/12/11 03:20:50;;;;;;;1.50;1.13;;;;;;;1.22;82.02;95869.88;5114055;28;20123;-65
2021/12/11 03:23:16;;;;;;;1.23;1.10;;;;;;;1.26;82.79;95865.53;5114100;28;20024;-64
2021/12/11 03:25:42;;;;;;;2.05;1.20;;;;;;;1.31;82.65;95860.31;5114279;28;20034;-65
2021/12/11 03:28:10;;;;;;;1.17;1.08;;;;;;;1.30;82.52;95863.78;5114063;28;20023;-61
2021/12/11 03:30:40;;;;;;;1.63;1.30;;;;;;;1.32;82.39;95874.94;5114087;28;20023;-62
2021/12/11 03:33:12;;;;;;;0.93;0.93;;;;;;;1.29;81.89;95874.97;5114106;28;20385;-63
2021/12/11 03:35:39;;;;;;;1.92;1.38;;;;;;;1.29;81.46;95856.94;5114046;28;20023;-64
2021/12/11 03:38:06;;;;;;;1.45;1.35;;;;;;;1.20;81.58;95863.88;5114092;28;20024;-63
2021/12/11 03:40:32;;;;;;;3.78;1.52;;;;;;;1.17;81.82;95881.13;5114029;28;20026;-64
2021/12/11 03:43:05;;;;;;;1.55;1.30;;;;;;;1.14;81.78;95876.81;5113875;28;20024;-64
2021/12/11 03:45:33;;;;;;;2.05;1.55;;;;;;;1.12;82.97;95884.56;5113881;28;20023;-65
2021/12/11 03:48:05;;;;;;;1.75;1.50;;;;;;;1.16;83.12;95882.81;5113818;28;20019;-64
2021/12/11 03:50:31;;;;;;;1.88;1.20;;;;;;;1.10;82.86;95891.50;5113842;28;20027;-66
2021/12/11 03:52:58;;;;;;;1.30;1.15;;;;;;;1.08;82.39;95872.59;5113775;28;20030;-64
2021/12/11 03:55:33;;;;;;;2.15;1.40;;;;;;;1.03;82.44;95871.81;5113757;28;20019;-65
2021/12/11 03:58:01;;;;;;;3.70;1.20;;;;;;;0.98;82.57;95858.97;5113680;28;20106;-64
2021/12/11 04:00:35;;;;;;;1.67;1.40;;;;;;;0.95;83.37;95861.59;5113613;28;20163;-64
2021/12/11 04:03:05;;;;;;;10.98;1.20;;;;;;;0.94;82.99;95865.03;5113526;28;20023;-65
2021/12/11 04:05:37;;;;;;;1.55;1.45;;;;;;;0.91;82.71;95853.91;5113686;28;20035;-62
2021/12/11 04:08:04;;;;;;;1.30;1.20;;;;;;;0.86;83.41;95841.06;5113574;28;20035;-63
2021/12/11 04:10:30;;;;;;;3.40;1.30;;;;;;;0.92;84.10;95847.88;5113594;28;20101;-64
2021/12/11 04:13:00;;;;;;;1.52;1.38;;;;;;;0.95;84.11;95838.41;5113415;28;20573;-64
2021/12/11 04:15:26;;;;;;;2.22;1.60;;;;;;;0.97;84.32;95851.28;5115950;28;20039;-65
2021/12/11 04:17:54;;;;;;;1.77;1.48;;;;;;;1.04;84.49;95878.66;5117777;28;20057;-66
2021/12/11 04:20:23;;;;;;;2.20;1.58;;;;;;;1.08;84.44;95880.34;5117553;28;20104;-63
2021/12/11 04:22:49;;;;;;;3.85;1.50;;;;;;;1.12;84.26;95876.84;5117556;28;20462;-63
2021/12/11 04:25:17;;;;;;;3.85;1.50;;;;;;;1.14;83.86;95879.41;5117637;28;20030;-64
2021/12/11 04:27:43;;;;;;;1.58;1.30;;;;;;;1.10;83.76;95876.03;5117727;28;20040;-65
2021/12/11 04:30:11;;;;;;;1.75;1.30;;;;;;;1.11;83.52;95859.69;5117738;28;20089;-65
2021/12/11 04:32:38;;;;;;;1.67;1.50;;;;;;;1.14;83.30;95866.53;5117569;28;20031;-65
2021/12/11 04:35:07;;;;;;;1.50;1.40;;;;;;;1.17;83.26;95865.66;5117527;28;20019;-60
2021/12/11 04:37:35;;;;;;;2.30;1.30;;;;;;;1.18;83.01;95881.09;5117451;27;20019;-67
2021/12/11 04:40:09;;;;;;;3.05;1.48;;;;;;;1.12;83.25;95876.84;5117530;28;20028;-67
2021/12/11 04:45:06;;;;;;;3.60;1.77;;;;;;;1.19;83.71;95854.44;5117140;28;20032;-66
2021/12/11 04:47:39;;;;;;;1.67;1.55;;;;;;;1.23;83.26;95855.25;5117217;28;20035;-67
2021/12/11 04:50:14;;;;;;;8.98;1.77;;;;;;;1.11;83.48;95857.13;5117246;28;20028;-65
2021/12/11 04:52:54;;;;;;;2.47;1.60;;;;;;;1.12;83.81;95861.38;5117369;28;20031;-64
2021/12/11 05:11:20;;;;;;;10.68;4.13;;;;;;;2.14;90.64;95854.91;5116852;28;20043;-63
2021/12/11 05:13:46;;;;;;;8.63;3.75;;;;;;;2.48;89.70;95869.00;5116771;28;20068;-61
2021/12/11 05:16:14;;;;;;;7.78;3.28;;;;;;;2.82;88.10;95875.28;5116785;27;20015;-67
2021/12/11 05:18:45;;;;;;;9.40;3.05;;;;;;;3.10;86.68;95869.63;5116742;28;20458;-64
2021/12/11 05:21:16;;;;;;;4.00;2.50;;;;;;;3.36;84.73;95873.44;5116413;28;20040;-64
2021/12/11 05:23:42;;;;;;;2.97;2.50;;;;;;;3.50;84.78;95863.69;5116493;28;20437;-62
2021/12/11 05:26:07;;;;;;;2.90;2.05;;;;;;;3.72;84.68;95850.28;5116027;28;20043;-65
2021/12/11 05:28:34;;;;;;;4.88;2.33;;;;;;;3.79;83.82;95846.66;5116447;28;20055;-59
2021/12/11 05:31:04;;;;;;;3.53;1.90;;;;;;;3.96;83.93;95832.50;5116434;28;20069;-64
2021/12/11 05:33:30;;;;;;;5.93;2.53;;;;;;;4.21;82.83;95837.09;5116488;28;20085;-61
2021/12/11 05:35:56;;;;;;;7.78;2.28;;;;;;;4.34;82.14;95824.72;5116322;28;20427;-62
2021/12/11 05:38:23;;;;;;;2.63;2.05;;;;;;;4.43;81.87;95832.22;5116131;28;20058;-62
2021/12/11 05:40:53;;;;;;;2.80;1.88;;;;;;;4.53;81.83;95840.63;5116235;28;20076;-63
2021/12/11 05:43:19;;;;;;;2.70;2.33;;;;;;;4.53;81.04;95857.91;5116189;27;20128;-62
2021/12/11 05:45:45;;;;;;;8.15;1.80;;;;;;;4.50;81.01;95857.97;5116191;28;20027;-60
2021/12/11 05:48:11;;;;;;;4.80;2.50;;;;;;;4.41;81.18;95861.66;5114915;28;20016;-61
2021/12/11 05:50:51;;;;;;;6.85;2.35;;;;;;;4.34;80.94;95865.28;5116012;28;20024;-65
2021/12/11 05:53:19;;;;;;;3.15;2.47;;;;;;;4.24;81.27;95868.09;5116085;28;20027;-62
2021/12/11 05:55:48;;;;;;;3.58;2.35;;;;;;;4.17;81.56;95858.75;5115975;28;20047;-67
2021/12/11 05:58:24;;;;;;;4.95;3.13;;;;;;;4.10;81.94;95860.66;5115844;28;20027;-65
2021/12/11 06:00:52;;;;;;;5.18;2.72;;;;;;;4.06;82.31;95856.41;5115863;28;20032;-62
2021/12/11 06:03:18;;;;;;;8.13;2.00;;;;;;;4.26;82.60;95862.88;5115872;28;20036;-60
2021/12/11 06:05:44;;;;;;;5.10;2.30;;;;;;;4.33;82.60;95863.59;5115770;28;20012;-63
2021/12/11 06:08:11;;;;;;;5.10;2.10;;;;;;;4.41;82.32;95857.34;5115667;28;20489;-63
2021/12/11 06:10:39;;;;;;;3.15;1.90;;;;;;;4.57;81.72;95869.91;5114498;28;20134;-61
2021/12/11 06:13:08;;;;;;;5.55;2.05;;;;;;;4.66;81.33;95887.81;5115464;28;20399;-62
2021/12/11 06:15:34;;;;;;;4.35;2.00;;;;;;;4.72;80.87;95893.75;5114394;28;20027;-64
2021/12/11 06:18:02;;;;;;;6.65;1.98;;;;;;;4.77;80.99;95892.72;5115495;28;20020;-62
2021/12/11 06:20:29;;;;;;;5.82;1.65;;;;;;;5.06;81.86;95888.50;5115069;28;20558;-61
2021/12/11 06:22:55;;;;;;;3.83;1.98;;;;;;;5.50;78.88;95889.06;5115294;28;20035;-64
2021/12/11 06:25:29;;;;;;;3.80;1.40;;;;;;;5.56;78.68;95879.38;5115334;28;20475;-62
2021/12/11 06:27:55;;;;;;;2.35;1.63;;;;;;;5.62;78.59;95895.66;5115331;28;20171;-66
2021/12/11 06:30:21;;;;;;;3.42;1.50;;;;;;;5.68;78.37;95891.16;5115397;28;20543;-65
2021/12/11 06:32:48;;;;;;;4.07;1.67;;;;;;;5.75;78.09;95899.59;5115162;28;20046;-63
2021/12/11 06:35:39;;;;;;;4.43;1.60;;;;;;;5.77;78.19;95891.78;5115042;28;20385;-65
2021/12/11 06:38:10;;;;;;;2.78;1.45;;;;;;;5.75;77.77;95889.22;5114425;28;20110;-62
2021/12/11 06:40:36;;;;;;;;;;;;;;;5.83;77.16;95883.81;5115611;28;20024;-61
2021/12/11 06:43:02;;;;;;;5.20;1.70;;;;;;;5.85;76.75;95888.97;5114900;28;19918;-63
2021/12/11 06:45:28;;;;;;;2.05;1.70;;;;;;;5.94;76.86;95899.09;5114944;28;20020;-64
2021/12/11 06:47:55;;;;;;;8.75;2.00;;;;;;;6.02;76.58;95884.09;5114902;28;20484;-64
2021/12/11 06:50:21;;;;;;;7.78;1.95;;;;;;;6.05;75.88;95875.44;5114821;28;20024;-64
2021/12/11 06:52:49;;;;;;;3.63;1.70;;;;;;;6.17;75.80;95888.03;5114764;28;20104;-63
2021/12/11 06:55:16;;;;;;;7.35;1.63;;;;;;;6.21;76.31;95881.00;5114778;28;20049;-66
2021/12/11 06:57:42;;;;;;;4.75;1.75;;;;;;;6.30;75.59;95879.84;5114616;28;20031;-61
2021/12/11 07:00:09;;;;;;;4.90;1.50;;;;;;;6.48;75.43;95883.63;5114620;28;20414;-62
2021/12/11 07:02:34;;;;;;;8.43;2.05;;;;;;;6.70;74.46;95891.56;5114471;28;20035;-65
2021/12/11 07:05:00;;;;;;;6.68;1.63;;;;;;;7.05;74.10;95893.84;5114578;27;20484;-61
2021/12/11 07:07:32;;;;;;;2.35;1.20;;;;;;;7.26;71.75;95869.78;5114462;28;20080;-63
2021/12/11 07:09:59;;;;;;;6.85;1.40;;;;;;;7.61;71.87;95879.81;5114529;28;20028;-60
2021/12/11 07:12:25;;;;;;;3.40;1.40;;;;;;;7.79;70.52;95881.72;5114397;28;20461;-62
2021/12/11 07:14:52;;;;;;;3.40;1.33;;;;;;;7.73;70.43;95887.16;5114271;28;20032;-65
2021/12/11 07:17:18;;;;;;;4.45;1.70;;;;;;;7.67;71.05;95897.78;5114312;28;20115;-67
2021/12/11 07:19:44;;;;;;;8.32;1.75;;;;;;;7.61;71.27;95913.66;5114069;28;20100;-64
2021/12/11 07:22:10;;;;;;;4.95;2.10;;;;;;;7.48;72.26;95905.41;5114268;28;20027;-65
2021/12/11 07:24:44;;;;;;;4.72;1.85;;;;;;;7.45;72.73;95914.19;5114103;28;20031;-65
2021/12/11 07:27:11;;;;;;;6.00;1.75;;;;;;;7.41;72.97;95890.03;5114240;28;20039;-65
2021/12/11 07:29:39;;;;;;;7.78;1.58;;;;;;;7.38;72.75;95882.34;5114158;28;20044;-66
2021/12/11 07:32:06;;;;;;;5.95;1.40;;;;;;;7.47;73.45;95883.78;5114038;27;20055;-61
2021/12/11 07:34:32;;;;;;;3.30;1.30;;;;;;;7.85;74.10;95875.44;5113918;28;20024;-65
2021/12/11 07:37:01;;;;;;;13.20;1.63;;;;;;;8.15;71.30;95863.88;5112873;28;20016;-65
2021/12/11 07:39:27;;;;;;;13.15;1.33;;;;;;;8.78;70.22;95852.72;5113989;27;20030;-64
2021/12/11 07:41:54;;;;;;;5.28;0.98;;;;;;;9.55;67.57;95850.31;5113928;28;20027;-64
2021/12/11 07:44:21;;;;;;;4.65;1.30;;;;;;;9.88;65.46;95863.66;5113751;28;20036;-60
2021/12/11 07:46:47;;;;;;;6.72;1.85;;;;;;;10.58;64.85;95865.66;5113834;28;20099;-64
2021/12/11 07:49:14;;;;;;;3.97;1.15;;;;;;;11.32;62.05;95866.31;5113616;28;20058;-66
2021/12/11 07:51:41;;;;;;;2.28;0.90;;;;;;;12.06;59.06;95867.72;5113803;28;20031;-62
2021/12/11 07:54:07;;;;;;;7.82;1.48;;;;;;;12.35;59.31;95860.06;5113704;28;20020;-62
2021/12/11 07:56:34;;;;;;;4.35;1.50;;;;;;;12.28;56.69;95864.78;5113603;28;20500;-62
2021/12/11 07:59:03;;;;;;;7.72;1.30;;;;;;;12.08;57.87;95858.03;5113795;28;20024;-61
2021/12/11 08:01:33;;;;;;;3.17;1.13;;;;;;;11.85;57.60;95866.19;5113906;28;20024;-65
2021/12/11 08:04:00;;;;;;;7.53;1.10;;;;;;;11.71;59.40;95879.19;5113688;28;20484;-61
2021/12/11 08:06:26;;;;;;;4.50;1.10;;;;;;;11.56;59.34;95867.75;5113525;28;20060;-65
2021/12/11 08:08:52;;;;;;;5.00;1.35;;;;;;;11.16;60.04;95865.41;5113464;28;20470;-61
2021/12/11 08:11:19;;;;;;;5.05;1.27;;;;;;;10.73;60.72;95871.91;5113611;28;20027;-65
2021/12/11 08:13:48;;;;;;;5.55;1.60;;;;;;;10.56;62.85;95877.94;5113567;28;20076;-60
2021/12/11 08:16:19;;;;;;;7.25;1.70;;;;;;;10.49;64.10;95877.41;5113546;28;20024;-63
2021/12/11 08:18:45;;;;;;;3.78;1.67;;;;;;;10.44;65.84;95884.56;5113662;28;20496;-67
2021/12/11 08:21:11;;;;;;;3.78;1.88;;;;;;;10.28;66.29;95876.63;5113369;28;20408;-64
2021/12/11 08:23:43;;;;;;;6.28;1.50;;;;;;;10.13;64.83;95873.81;5113329;28;20040;-62
2021/12/11 08:26:11;;;;;;;6.45;1.20;;;;;;;9.86;65.54;95875.03;5113469;28;20042;-62
2021/12/11 08:28:37;;;;;;;5.78;1.45;;;;;;;9.80;65.39;95874.47;5113459;28;20431;-63
2021/12/11 08:31:03;;;;;;;7.45;1.75;;;;;;;9.70;65.55;95861.81;5113554;28;20362;-65
2021/12/11 08:33:29;;;;;;;9.95;1.52;;;;;;;9.60;66.56;95869.22;5113294;28;20035;-62
2021/12/11 08:35:55;;;;;;;2.17;1.30;;;;;;;9.48;67.00;95854.97;5113376;28;20028;-64
2021/12/11 08:38:22;;;;;;;2.75;1.08;;;;;;;9.31;67.27;95844.41;5113227;28;20016;-63
2021/12/11 08:40:52;;;;;;;5.63;1.55;;;;;;;9.34;68.55;95852.13;5113387;28;20024;-62
2021/12/11 08:43:19;;;;;;;2.58;1.30;;;;;;;9.29;67.89;95846.22;5113304;28;20019;-64
2021/12/11 08:45:57;;;;;;;7.40;1.67;;;;;;;9.26;67.68;95846.38;5113174;28;20066;-60
2021/12/11 08:48:25;;;;;;;4.28;1.92;;;;;;;9.24;67.76;95854.25;5113230;28;20508;-67
2021/12/11 08:50:55;;;;;;;7.78;1.70;;;;;;;9.16;67.33;95846.78;5113184;28;20020;-62
2021/12/11 08:53:21;;;;;;;8.13;1.40;;;;;;;9.17;67.17;95843.25;5113332;28;20036;-61
2021/12/11 08:55:53;;;;;;;6.80;1.45;;;;;;;9.37;67.66;95851.97;5113299;28;20030;-64
2021/12/11 08:58:21;;;;;;;5.18;1.50;;;;;;;9.45;67.11;95849.88;5113068;28;20488;-67
2021/12/11 09:01:07;;;;;;;6.20;1.70;;;;;;;9.54;66.74;95838.16;5114085;28;20027;-63
2021/12/11 09:04:02;;;;;;;4.20;1.50;;;;;;;9.69;66.56;95839.22;5116948;28;20045;-64
2021/12/11 09:06:36;;;;;;;4.65;1.85;;;;;;;9.65;67.37;95827.25;5112891;28;20111;-66
2021/12/11 09:09:17;;;;;;;7.18;1.42;;;;;;;9.75;66.05;95829.44;5116908;28;20030;-65
2021/12/11 09:11:46;;;;;;;;;;;;;;;9.55;65.71;95824.22;5117284;28;20028;-63
2021/12/11 09:14:19;;;;;;;8.52;1.83;;;;;;;9.59;68.58;95828.38;5116662;28;19911;-64
2021/12/11 09:17:03;;;;;;;5.15;1.65;;;;;;;9.73;66.40;95824.28;5116798;28;20031;-60
2021/12/11 09:19:50;;;;;;;6.70;1.80;;;;;;;9.85;67.08;95812.41;5116487;28;20505;-65
2021/12/11 09:22:30;;;;;;;5.22;1.55;;;;;;;10.01;66.88;95806.44;5116521;28;20048;-64
2021/12/11 09:25:03;;;;;;;6.80;2.22;;;;;;;10.01;66.17;95820.38;5116439;28;20020;-66
2021/12/11 09:27:45;;;;;;;7.18;2.05;;;;;;;10.14;66.96;95814.56;5116602;28;20035;-66
2021/12/11 09:30:18;;;;;;;5.80;1.58;;;;;;;10.33;66.23;95810.13;5116558;28;20023;-62
2021/12/11 09:32:47;;;;;;;6.93;1.92;;;;;;;10.63;65.89;95810.50;5116420;28;20384;-65
2021/12/11 09:35:29;;;;;;;5.47;2.35;;;;;;;10.56;65.44;95800.34;5116388;28;20032;-60
2021/12/11 09:38:01;;;;;;;5.03;1.45;;;;;;;10.58;64.69;95811.59;5116315;28;20024;-65
2021/12/11 09:40:55;;;;;;;7.35;1.67;;;;;;;10.54;65.18;95796.94;5116339;28;20062;-63
2021/12/11 09:43:40;;;;;;;11.57;1.80;;;;;;;10.57;64.86;95803.81;5116137;28;20385;-63
2021/12/11 09:46:08;;;;;;;4.28;2.00;;;;;;;10.51;64.77;95807.59;5116271;28;20085;-68
2021/12/11 09:48:35;;;;;;;4.63;1.65;;;;;;;10.38;65.63;95803.84;5116106;28;20026;-61
2021/12/11 09:51:08;;;;;;;7.40;2.15;;;;;;;10.26;66.22;95798.28;5116070;28;20023;-63
2021/12/11 09:53:38;;;;;;;13.00;2.00;;;;;;;10.24;67.22;95792.31;5116034;28;20032;-62
2021/12/11 09:56:12;;;;;;;10.73;1.73;;;;;;;10.23;67.04;95774.91;5116055;28;20011;-62
2021/12/11 09:58:39;;;;;;;12.63;1.92;;;;;;;10.21;67.04;95788.03;5115982;28;20026;-60
2021/12/11 10:01:08;;;;;;;7.47;2.20;;;;;;;10.16;67.41;95781.34;5115786;28;20050;-62
2021/12/11 10:03:40;;;;;;;6.68;2.22;;;;;;;10.27;68.17;95779.09;5115649;28;20035;-64
2021/12/11 10:06:27;;;;;;;9.68;1.75;;;;;;;10.39;68.43;95779.38;5115804;28;20024;-62
2021/12/11 10:09:17;;;;;;;6.85;1.85;;;;;;;10.28;67.59;95775.53;5115754;28;20038;-64
2021/12/11 10:11:42;;;;;;;11.77;2.35;;;;;;;10.08;68.49;95781.72;5114737;28;20028;-61
2021/12/11 10:14:13;;;;;;;9.10;3.20;;;;;;;9.91;68.55;95772.09;5114967;28;20553;-65
2021/12/11 10:16:44;;;;;;;8.77;2.50;;;;;;;9.77;69.74;95770.13;5115649;27;20023;-64
2021/12/11 10:19:11;;;;;;;;;;;;;;;9.63;70.09;95755.94;5115781;28;20019;-65
2021/12/11 10:21:41;;;;;;;6.60;2.13;;;;;;;9.43;70.86;95760.34;5115497;28;20356;-61
2021/12/11 10:24:13;;;;;;;10.02;2.65;;;;;;;9.29;72.25;95745.31;5115434;28;20027;-62
2021/12/11 10:26:40;;;;;;;7.32;2.10;;;;;;;9.22;72.71;95749.13;5115332;28;20389;-65
2021/12/11 10:29:09;;;;;;;7.45;2.40;;;;;;;9.22;73.22;95756.94;5115226;28;20026;-62
2021/12/11 10:32:01;;;;;;;10.25;2.45;;;;;;;9.19;73.39;95749.25;5115278;28;20465;-63
2021/12/11 10:34:31;;;;;;;9.02;2.55;;;;;;;9.17;73.47;95745.84;5104241;28;20038;-62
2021/12/11 10:37:07;;;;;;;7.00;2.20;;;;;;;9.21;73.87;95763.91;5115060;28;20111;-61
2021/12/11 10:39:35;;;;;;;5.78;2.17;;;;;;;9.22;73.92;95736.06;5115058;28;20027;-61
2021/12/11 10:42:01;;;;;;;12.43;2.30;;;;;;;9.31;74.33;95734.81;5115021;28;20051;-65
2021/12/11 10:44:34;;;;;;;11.35;2.33;;;;;;;9.39;74.42;95744.91;5114924;28;20111;-64
2021/12/11 10:47:05;;;;;;;8.85;2.70;;;;;;;9.45;74.91;95739.41;5114982;28;20393;-62
2021/12/11 10:49:31;;;;;;;6.68;2.20;;;;;;;9.39;75.16;95744.91;5114870;28;20019;-59
2021/12/11 10:52:19;;;;;;;10.35;2.30;;;;;;;9.19;75.51;95744.91;5114742;28;20024;-60
2021/12/11 10:54:47;;;;;;;10.25;2.67;;;;;;;9.09;76.44;95728.78;5114964;28;20458;-64
2021/12/11 10:57:15;;;;;;;13.52;3.00;;;;;;;9.06;77.25;95730.72;5114929;28;20061;-59
2021/12/11 10:59:43;;;;;;;12.23;3.17;;;;;;;9.09;78.12;95733.16;5114709;28;20030;-63
2021/12/11 11:02:14;;;;;;;7.53;2.60;;;;;;;9.03;78.61;95730.84;5114621;28;20483;-62
2021/12/11 11:04:47;;;;;;;13.63;2.55;;;;;;;9.05;79.98;95723.78;5114521;28;20034;-62
2021/12/11 11:07:14;;;;;;;11.25;2.47;;;;;;;9.13;80.68;95729.50;5114694;28;20024;-62
2021/12/11 11:09:41;;;;;;;13.90;2.80;;;;;;;9.18;80.17;95734.53;5114568;28;20047;-63
2021/12/11 11:12:11;;;;;;;13.02;2.40;;;;;;;9.19;80.44;95739.69;5114440;28;20035;-64
2021/12/11 11:14:37;;;;;;;9.38;3.05;;;;;;;9.20;80.84;95738.75;5114488;28;20019;-64
2021/12/11 11:17:09;;;;;;;7.20;2.72;;;;;;;9.26;81.43;95734.16;5114384;28;20046;-67
2021/12/11 11:19:38;;;;;;;8.63;2.40;;;;;;;9.32;81.99;95731.25;5114030;28;20039;-60
2021/12/11 11:22:08;;;;;;;19.17;3.40;;;;;;;9.33;81.99;95718.16;5114424;28;20112;-62
2021/12/11 11:24:39;;;;;;;7.22;2.55;;;;;;;9.30;82.14;95715.69;5113807;28;20396;-60
2021/12/11 11:27:07;;;;;;;11.95;3.20;;;;;;;9.37;81.98;95726.69;5114329;28;20019;-62
2021/12/11 11:29:34;;;;;;;13.57;2.83;;;;;;;9.48;82.27;95720.94;5114191;28;20538;-64
2021/12/11 11:32:05;;;;;;;10.23;3.35;;;;;;;9.55;81.61;95717.16;5114162;28;20103;-66
2021/12/11 11:34:31;;;;;;;13.05;3.65;;;;;;;9.51;82.15;95707.75;5114199;28;20027;-67
2021/12/11 11:37:02;;;;;;;11.10;3.45;;;;;;;9.57;82.49;95717.91;5113981;28;20039;-65
2021/12/11 11:39:28;;;;;;;15.20;3.83;;;;;;;9.50;82.66;95708.69;5114008;28;20556;-65
2021/12/11 11:41:58;;;;;;;12.00;3.67;;;;;;;9.54;83.08;95706.78;5113948;28;20034;-65
2021/12/11 11:44:27;;;;;;;15.53;3.90;;;;;;;9.56;83.56;95703.19;5113859;28;20578;-66
2021/12/11 11:46:56;;;;;;;7.55;3.38;;;;;;;9.50;84.23;95702.59;5113863;28;20259;-60
2021/12/11 11:49:22;;;;;;;9.38;3.00;;;;;;;9.50;84.51;95711.28;5113804;28;20084;-63
2021/12/11 11:51:53;;;;;;;15.15;3.55;;;;;;;9.49;84.79;95696.56;5113887;28;20110;-67
2021/12/11 11:54:21;;;;;;;8.57;3.67;;;;;;;9.50;85.17;95686.94;5113872;28;20023;-62
2021/12/11 11:56:56;;;;;;;8.15;3.20;;;;;;;9.55;85.73;95698.03;5113663;28;20031;-63
2021/12/11 11:59:22;;;;;;;11.63;3.60;;;;;;;9.55;86.00;95684.97;5113966;28;20465;-64
2021/12/11 12:02:00;;;;;;;6.75;3.72;;;;;;;9.55;85.82;95692.81;5113590;28;20027;-66
2021/12/11 12:04:29;;;;;;;15.40;4.60;;;;;;;9.60;85.95;95689.06;5113561;28;20036;-61
2021/12/11 12:06:59;;;;;;;9.82;3.50;;;;;;;9.58;86.61;95685.66;5113512;28;20069;-65
2021/12/11 12:09:27;;;;;;;8.43;3.17;;;;;;;9.56;86.94;95691.88;5113627;28;20081;-61
2021/12/11 12:11:55;;;;;;;8.02;2.85;;;;;;;9.57;87.03;95686.59;5113696;28;20530;-64
2021/12/11 12:14:24;;;;;;;11.65;4.13;;;;;;;9.63;87.26;95682.84;5113582;28;20034;-64
2021/12/11 12:16:51;;;;;;;8.07;3.63;;;;;;;9.69;87.20;95697.38;5113536;28;20015;-65
2021/12/11 12:19:19;;;;;;;7.63;3.88;;;;;;;9.74;86.81;95690.16;5113280;28;20019;-65